sensor_id;sensor_type;location;lat;lon;timestamp;pressure;altitude;pressure_sealevel;temperature;humidity
4398;BME280;2213;49.720;7.296;2023-01-30T00:01:47;98801.03;;;0.54;100.00
4398;BME280;2213;49.720;7.296;2023-01-30T00:04:17;98798.59;;;0.52;100.00
4398;BME280;2213;49.720;7.296;2023-01-30T00:06:47;98803.13;;;0.48;100.00
4398;BME280;2213;49.720;7.296;2023-01-30T00:09:17;98794.44;;;0.49;100.00
4398;BME280;2213;49.720;7.296;2023-01-30T00:11:47;98786.63;;;0.51;100.00
4398;BME280;2213;49.720;7.296;2023-01-30T00:14:17;98775.00;;;0.45;100.00
4398;BME280;2213;49.720;7.296;2023-01-30T00:16:47;98774.38;;;0.42;100.00
4398;BME280;2213;49.720;7.296;2023-01-30T00:19:17;98768.13;;;0.46;100.00
4398;BME280;2213;49.720;7.296;2023-01-30T00:21:47;98759.47;;;0.47;100.00
4398;BME280;2213;49.720;7.296;2023-01-30T00:24:17;98757.22;;;0.42;100.00
4398;BME280;2213;49.720;7.296;2023-01-30T00:26:47;98752.91;;;0.43;100.00
4398;BME280;2213;49.720;7.296;2023-01-30T00:29:16;98737.25;;;0.46;100.00
4398;BME280;2213;49.720;7.296;2023-01-30T00:31:46;98726.88;;;0.47;100.00
4398;BME280;2213;49.720;7.296;2023-01-30T00:34:17;98715.84;;;0.45;100.00
4398;BME280;2213;49.720;7.296;2023-01-30T00:36:47;98719.97;;;0.48;100.00
4398;BME280;2213;49.720;7.296;2023-01-30T00:39:33;98711.75;;;0.43;100.00
4398;BME280;2213;49.720;7.296;2023-01-30T00:42:03;98717.00;;;0.41;100.00
4398;BME280;2213;49.720;7.296;2023-01-30T00:44:50;98716.19;;;0.41;100.00
4398;BME280;2213;49.720;7.296;2023-01-30T00:47:38;98712.34;;;0.46;100.00
4398;BME280;2213;49.720;7.296;2023-01-30T00:50:10;98703.72;;;0.47;100.00
4398;BME280;2213;49.720;7.296;2023-01-30T00:52:39;98709.47;;;0.51;100.00
4398;BME280;2213;49.720;7.296;2023-01-30T00:55:10;98723.63;;;0.57;100.00
4398;BME280;2213;49.720;7.296;2023-01-30T00:57:44;98707.16;;;0.59;100.00
4398;BME280;2213;49.720;7.296;2023-01-30T01:00:14;98715.00;;;0.58;100.00
4398;BME280;2213;49.720;7.296;2023-01-30T01:02:44;98706.34;;;0.59;100.00
4398;BME280;2213;49.720;7.296;2023-01-30T01:05:15;98708.94;;;0.59;100.00
4398;BME280;2213;49.720;7.296;2023-01-30T01:07:45;98699.34;;;0.61;100.00
4398;BME280;2213;49.720;7.296;2023-01-30T01:10:16;98688.44;;;0.57;100.00
4398;BME280;2213;49.720;7.296;2023-01-30T01:12:46;98697.59;;;0.61;100.00
4398;BME280;2213;49.720;7.296;2023-01-30T01:15:17;98675.34;;;0.60;100.00
4398;BME280;2213;49.720;7.296;2023-01-30T01:17:46;98703.56;;;0.62;100.00
4398;BME280;2213;49.720;7.296;2023-01-30T01:20:20;98702.75;;;0.61;100.00
4398;BME280;2213;49.720;7.296;2023-01-30T01:22:53;98683.06;;;0.60;100.00
4398;BME280;2213;49.720;7.296;2023-01-30T01:25:24;98681.31;;;0.61;100.00
4398;BME280;2213;49.720;7.296;2023-01-30T01:27:54;98665.91;;;0.61;100.00
4398;BME280;2213;49.720;7.296;2023-01-30T01:30:24;98656.09;;;0.66;100.00
4398;BME280;2213;49.720;7.296;2023-01-30T01:32:52;98657.50;;;0.70;100.00
4398;BME280;2213;49.720;7.296;2023-01-30T01:35:23;98658.56;;;0.67;100.00
4398;BME280;2213;49.720;7.296;2023-01-30T01:37:54;98662.66;;;0.70;100.00
4398;BME280;2213;49.720;7.296;2023-01-30T01:40:24;98650.50;;;0.72;100.00
4398;BME280;2213;49.720;7.296;2023-01-30T01:43:17;98629.31;;;0.68;100.00
4398;BME280;2213;49.720;7.296;2023-01-30T01:45:50;98647.22;;;0.70;100.00
4398;BME280;2213;49.720;7.296;2023-01-30T01:48:28;98625.22;;;0.66;100.00
4398;BME280;2213;49.720;7.296;2023-01-30T01:51:05;98639.03;;;0.65;100.00
4398;BME280;2213;49.720;7.296;2023-01-30T01:53:42;98650.97;;;0.66;100.00
4398;BME280;2213;49.720;7.296;2023-01-30T01:56:16;98652.09;;;0.62;100.00
4398;BME280;2213;49.720;7.296;2023-01-30T01:58:55;98651.88;;;0.65;100.00
4398;BME280;2213;49.720;7.296;2023-01-30T02:01:27;98640.66;;;0.66;100.00
4398;BME280;2213;49.720;7.296;2023-01-30T02:04:02;98655.06;;;0.68;100.00
4398;BME280;2213;49.720;7.296;2023-01-30T02:06:36;98641.38;;;0.68;100.00
4398;BME280;2213;49.720;7.296;2023-01-30T02:09:10;98628.50;;;0.68;100.00
4398;BME280;2213;49.720;7.296;2023-01-30T02:11:46;98609.78;;;0.66;100.00
4398;BME280;2213;49.720;7.296;2023-01-30T02:14:19;98607.69;;;0.71;100.00
4398;BME280;2213;49.720;7.296;2023-01-30T02:16:49;98605.84;;;0.73;100.00
4398;BME280;2213;49.720;7.296;2023-01-30T02:19:28;98605.03;;;0.72;100.00
4398;BME280;2213;49.720;7.296;2023-01-30T02:22:24;98596.56;;;0.70;100.00
4398;BME280;2213;49.720;7.296;2023-01-30T02:25:43;98608.41;;;0.73;100.00
4398;BME280;2213;49.720;7.296;2023-01-30T02:28:58;98616.13;;;0.73;100.00
4398;BME280;2213;49.720;7.296;2023-01-30T02:31:41;98607.69;;;0.71;100.00
4398;BME280;2213;49.720;7.296;2023-01-30T02:34:34;98613.56;;;0.73;100.00
4398;BME280;2213;49.720;7.296;2023-01-30T02:37:19;98616.94;;;0.73;100.00
4398;BME280;2213;49.720;7.296;2023-01-30T02:40:20;98609.00;;;0.76;100.00
4398;BME280;2213;49.720;7.296;2023-01-30T02:43:00;98606.53;;;0.75;100.00
4398;BME280;2213;49.720;7.296;2023-01-30T02:45:41;98609.00;;;0.76;100.00
4398;BME280;2213;49.720;7.296;2023-01-30T02:48:20;98615.69;;;0.79;100.00
4398;BME280;2213;49.720;7.296;2023-01-30T02:50:57;98604.34;;;0.81;100.00
4398;BME280;2213;49.720;7.296;2023-01-30T02:53:31;98601.75;;;0.81;100.00
4398;BME280;2213;49.720;7.296;2023-01-30T02:56:02;98593.13;;;0.82;100.00
4398;BME280;2213;49.720;7.296;2023-01-30T02:58:38;98599.78;;;0.85;100.00
4398;BME280;2213;49.720;7.296;2023-01-30T03:04:44;98597.72;;;0.90;100.00
4398;BME280;2213;49.720;7.296;2023-01-30T03:07:28;98584.13;;;0.88;100.00
4398;BME280;2213;49.720;7.296;2023-01-30T03:10:08;98586.81;;;0.86;100.00
4398;BME280;2213;49.720;7.296;2023-01-30T03:12:53;98603.78;;;0.89;100.00
4398;BME280;2213;49.720;7.296;2023-01-30T03:15:34;98595.81;;;0.92;100.00
4398;BME280;2213;49.720;7.296;2023-01-30T03:18:06;98604.25;;;0.94;100.00
4398;BME280;2213;49.720;7.296;2023-01-30T03:20:39;98600.75;;;0.95;100.00
4398;BME280;2213;49.720;7.296;2023-01-30T03:23:09;98599.09;;;0.94;100.00
4398;BME280;2213;49.720;7.296;2023-01-30T03:25:41;98589.75;;;0.93;100.00
4398;BME280;2213;49.720;7.296;2023-01-30T03:28:16;98595.38;;;0.98;100.00
4398;BME280;2213;49.720;7.296;2023-01-30T03:30:46;98576.41;;;0.99;100.00
4398;BME280;2213;49.720;7.296;2023-01-30T03:33:16;98577.47;;;0.96;100.00
4398;BME280;2213;49.720;7.296;2023-01-30T03:35:47;98575.72;;;0.97;100.00
4398;BME280;2213;49.720;7.296;2023-01-30T03:38:18;98564.72;;;0.95;100.00
4398;BME280;2213;49.720;7.296;2023-01-30T03:40:48;98579.22;;;0.96;100.00
4398;BME280;2213;49.720;7.296;2023-01-30T03:43:17;98586.72;;;0.99;100.00
4398;BME280;2213;49.720;7.296;2023-01-30T03:45:46;98580.50;;;1.01;100.00
4398;BME280;2213;49.720;7.296;2023-01-30T03:48:16;98582.63;;;0.96;100.00
4398;BME280;2213;49.720;7.296;2023-01-30T03:50:48;98578.75;;;1.02;100.00
4398;BME280;2213;49.720;7.296;2023-01-30T03:53:17;98570.44;;;0.98;100.00
4398;BME280;2213;49.720;7.296;2023-01-30T03:55:47;98571.28;;;0.99;100.00
4398;BME280;2213;49.720;7.296;2023-01-30T03:58:17;98563.91;;;1.06;100.00
4398;BME280;2213;49.720;7.296;2023-01-30T04:00:47;98569.19;;;1.04;100.00
4398;BME280;2213;49.720;7.296;2023-01-30T04:03:17;98564.63;;;1.08;100.00
4398;BME280;2213;49.720;7.296;2023-01-30T04:05:47;98567.06;;;1.09;100.00
4398;BME280;2213;49.720;7.296;2023-01-30T04:08:17;98571.28;;;1.10;100.00
4398;BME280;2213;49.720;7.296;2023-01-30T04:10:47;98581.59;;;1.10;100.00
4398;BME280;2213;49.720;7.296;2023-01-30T04:13:17;98583.72;;;1.16;100.00
4398;BME280;2213;49.720;7.296;2023-01-30T04:15:46;98562.50;;;1.13;100.00
4398;BME280;2213;49.720;7.296;2023-01-30T04:18:16;98558.19;;;1.13;100.00
4398;BME280;2213;49.720;7.296;2023-01-30T04:20:48;98544.38;;;1.14;100.00
4398;BME280;2213;49.720;7.296;2023-01-30T04:23:19;98543.34;;;1.17;100.00
4398;BME280;2213;49.720;7.296;2023-01-30T04:25:48;98539.94;;;1.16;100.00
4398;BME280;2213;49.720;7.296;2023-01-30T04:28:19;98537.25;;;1.18;100.00
4398;BME280;2213;49.720;7.296;2023-01-30T04:30:51;98536.19;;;1.20;100.00
4398;BME280;2213;49.720;7.296;2023-01-30T04:33:20;98536.88;;;1.22;100.00
4398;BME280;2213;49.720;7.296;2023-01-30T04:35:56;98535.97;;;1.23;100.00
4398;BME280;2213;49.720;7.296;2023-01-30T04:38:28;98530.13;;;1.21;100.00
4398;BME280;2213;49.720;7.296;2023-01-30T04:40:58;98526.56;;;1.22;100.00
4398;BME280;2213;49.720;7.296;2023-01-30T04:43:28;98536.88;;;1.22;100.00
4398;BME280;2213;49.720;7.296;2023-01-30T04:45:58;98537.59;;;1.24;100.00
4398;BME280;2213;49.720;7.296;2023-01-30T04:48:28;98524.97;;;1.21;100.00
4398;BME280;2213;49.720;7.296;2023-01-30T04:50:59;98515.25;;;1.25;100.00
4398;BME280;2213;49.720;7.296;2023-01-30T04:53:29;98510.88;;;1.25;100.00
4398;BME280;2213;49.720;7.296;2023-01-30T04:55:59;98490.28;;;1.25;100.00
4398;BME280;2213;49.720;7.296;2023-01-30T04:58:28;98483.53;;;1.24;100.00
4398;BME280;2213;49.720;7.296;2023-01-30T05:01:18;98494.66;;;1.25;100.00
4398;BME280;2213;49.720;7.296;2023-01-30T05:03:50;98482.69;;;1.24;100.00
4398;BME280;2213;49.720;7.296;2023-01-30T05:06:22;98476.47;;;1.26;100.00
4398;BME280;2213;49.720;7.296;2023-01-30T05:08:54;98491.69;;;1.29;100.00
4398;BME280;2213;49.720;7.296;2023-01-30T05:11:29;98491.09;;;1.26;100.00
4398;BME280;2213;49.720;7.296;2023-01-30T05:13:59;98485.84;;;1.27;100.00
4398;BME280;2213;49.720;7.296;2023-01-30T05:16:29;98485.72;;;1.29;100.00
4398;BME280;2213;49.720;7.296;2023-01-30T05:18:59;98489.13;;;1.29;100.00
4398;BME280;2213;49.720;7.296;2023-01-30T05:21:30;98481.97;;;1.33;100.00
4398;BME280;2213;49.720;7.296;2023-01-30T05:24:00;98472.50;;;1.33;100.00
4398;BME280;2213;49.720;7.296;2023-01-30T05:26:30;98482.94;;;1.32;100.00
4398;BME280;2213;49.720;7.296;2023-01-30T05:29:02;98490.75;;;1.30;100.00
4398;BME280;2213;49.720;7.296;2023-01-30T05:31:32;98492.41;;;1.31;100.00
4398;BME280;2213;49.720;7.296;2023-01-30T05:34:02;98490.53;;;1.33;100.00
4398;BME280;2213;49.720;7.296;2023-01-30T05:36:34;98500.00;;;1.33;100.00
4398;BME280;2213;49.720;7.296;2023-01-30T05:39:04;98510.22;;;1.34;100.00
4398;BME280;2213;49.720;7.296;2023-01-30T05:41:34;98506.69;;;1.35;100.00
4398;BME280;2213;49.720;7.296;2023-01-30T05:44:04;98498.72;;;1.38;100.00
4398;BME280;2213;49.720;7.296;2023-01-30T05:46:33;98499.66;;;1.37;100.00
4398;BME280;2213;49.720;7.296;2023-01-30T05:49:04;98484.22;;;1.37;100.00
4398;BME280;2213;49.720;7.296;2023-01-30T05:51:35;98468.63;;;1.39;100.00
4398;BME280;2213;49.720;7.296;2023-01-30T05:54:05;98454.94;;;1.38;100.00
4398;BME280;2213;49.720;7.296;2023-01-30T05:56:35;98458.31;;;1.39;100.00
4398;BME280;2213;49.720;7.296;2023-01-30T05:59:06;98463.34;;;1.40;100.00
4398;BME280;2213;49.720;7.296;2023-01-30T06:01:39;98448.16;;;1.37;100.00
4398;BME280;2213;49.720;7.296;2023-01-30T06:04:09;98438.66;;;1.38;100.00
4398;BME280;2213;49.720;7.296;2023-01-30T06:06:40;98426.59;;;1.38;100.00
4398;BME280;2213;49.720;7.296;2023-01-30T06:09:11;98428.22;;;1.39;100.00
4398;BME280;2213;49.720;7.296;2023-01-30T06:11:40;98431.88;;;1.37;100.00
4398;BME280;2213;49.720;7.296;2023-01-30T06:14:09;98442.16;;;1.37;100.00
4398;BME280;2213;49.720;7.296;2023-01-30T06:16:39;98444.16;;;1.33;100.00
4398;BME280;2213;49.720;7.296;2023-01-30T06:19:09;98452.81;;;1.32;100.00
4398;BME280;2213;49.720;7.296;2023-01-30T06:21:40;98465.25;;;1.38;100.00
4398;BME280;2213;49.720;7.296;2023-01-30T06:24:09;98465.25;;;1.38;100.00
4398;BME280;2213;49.720;7.296;2023-01-30T06:26:39;98478.00;;;1.40;100.00
4398;BME280;2213;49.720;7.296;2023-01-30T06:29:09;98475.66;;;1.37;100.00
4398;BME280;2213;49.720;7.296;2023-01-30T06:31:38;98485.97;;;1.37;100.00
4398;BME280;2213;49.720;7.296;2023-01-30T06:34:09;98482.31;;;1.39;100.00
4398;BME280;2213;49.720;7.296;2023-01-30T06:36:39;98486.66;;;1.39;100.00
4398;BME280;2213;49.720;7.296;2023-01-30T06:39:10;98488.78;;;1.45;100.00
4398;BME280;2213;49.720;7.296;2023-01-30T06:41:40;98496.75;;;1.42;100.00
4398;BME280;2213;49.720;7.296;2023-01-30T06:44:11;98501.75;;;1.43;100.00
4398;BME280;2213;49.720;7.296;2023-01-30T06:46:41;98500.69;;;1.46;100.00
4398;BME280;2213;49.720;7.296;2023-01-30T06:49:10;98499.91;;;1.45;100.00
4398;BME280;2213;49.720;7.296;2023-01-30T06:51:40;98502.34;;;1.47;100.00
4398;BME280;2213;49.720;7.296;2023-01-30T06:54:08;98505.50;;;1.50;100.00
4398;BME280;2213;49.720;7.296;2023-01-30T06:56:39;98497.91;;;1.49;100.00
4398;BME280;2213;49.720;7.296;2023-01-30T06:59:07;98497.06;;;1.48;100.00
4398;BME280;2213;49.720;7.296;2023-01-30T07:01:36;98501.06;;;1.52;100.00
4398;BME280;2213;49.720;7.296;2023-01-30T07:04:06;98500.09;;;1.53;100.00
4398;BME280;2213;49.720;7.296;2023-01-30T07:06:36;98489.78;;;1.53;100.00
4398;BME280;2213;49.720;7.296;2023-01-30T07:09:07;98494.94;;;1.53;100.00
4398;BME280;2213;49.720;7.296;2023-01-30T07:11:36;98489.56;;;1.57;100.00
4398;BME280;2213;49.720;7.296;2023-01-30T07:14:06;98491.78;;;1.61;100.00
4398;BME280;2213;49.720;7.296;2023-01-30T07:16:36;98487.69;;;1.59;100.00
4398;BME280;2213;49.720;7.296;2023-01-30T07:19:07;98490.97;;;1.61;100.00
4398;BME280;2213;49.720;7.296;2023-01-30T07:21:36;98503.72;;;1.62;100.00
4398;BME280;2213;49.720;7.296;2023-01-30T07:24:09;98504.31;;;1.66;100.00
4398;BME280;2213;49.720;7.296;2023-01-30T07:26:39;98521.41;;;1.67;100.00
4398;BME280;2213;49.720;7.296;2023-01-30T07:29:09;98502.66;;;1.65;100.00
4398;BME280;2213;49.720;7.296;2023-01-30T07:31:38;98498.91;;;1.69;100.00
4398;BME280;2213;49.720;7.296;2023-01-30T07:34:09;98500.78;;;1.67;100.00
4398;BME280;2213;49.720;7.296;2023-01-30T07:36:39;98509.09;;;1.70;100.00
4398;BME280;2213;49.720;7.296;2023-01-30T07:39:10;98517.41;;;1.74;100.00
4398;BME280;2213;49.720;7.296;2023-01-30T07:41:41;98502.75;;;1.74;100.00
4398;BME280;2213;49.720;7.296;2023-01-30T07:44:12;98501.94;;;1.74;100.00
4398;BME280;2213;49.720;7.296;2023-01-30T07:46:42;98508.16;;;1.71;100.00
4398;BME280;2213;49.720;7.296;2023-01-30T07:49:12;98512.13;;;1.75;100.00
4398;BME280;2213;49.720;7.296;2023-01-30T07:51:41;98502.66;;;1.76;100.00
4398;BME280;2213;49.720;7.296;2023-01-30T07:54:12;98515.19;;;1.80;100.00
4398;BME280;2213;49.720;7.296;2023-01-30T07:56:42;98509.22;;;1.80;100.00
4398;BME280;2213;49.720;7.296;2023-01-30T07:59:11;98504.97;;;1.79;100.00
4398;BME280;2213;49.720;7.296;2023-01-30T08:01:41;98509.06;;;1.81;100.00
4398;BME280;2213;49.720;7.296;2023-01-30T08:04:12;98505.56;;;1.82;100.00
4398;BME280;2213;49.720;7.296;2023-01-30T08:06:42;98502.06;;;1.83;100.00
4398;BME280;2213;49.720;7.296;2023-01-30T08:09:13;98501.91;;;1.85;100.00
4398;BME280;2213;49.720;7.296;2023-01-30T08:11:43;98506.97;;;1.86;100.00
4398;BME280;2213;49.720;7.296;2023-01-30T08:14:14;98506.03;;;1.87;100.00
4398;BME280;2213;49.720;7.296;2023-01-30T08:16:44;98502.63;;;1.87;100.00
4398;BME280;2213;49.720;7.296;2023-01-30T08:19:14;98485.41;;;1.87;100.00
4398;BME280;2213;49.720;7.296;2023-01-30T08:21:43;98496.25;;;1.91;100.00
4398;BME280;2213;49.720;7.296;2023-01-30T08:24:15;98492.75;;;1.92;100.00
4398;BME280;2213;49.720;7.296;2023-01-30T08:26:47;98499.41;;;1.94;100.00
4398;BME280;2213;49.720;7.296;2023-01-30T08:29:16;98496.72;;;1.96;100.00
4398;BME280;2213;49.720;7.296;2023-01-30T08:31:46;98502.81;;;1.95;100.00
4398;BME280;2213;49.720;7.296;2023-01-30T08:34:16;98500.00;;;1.98;100.00
4398;BME280;2213;49.720;7.296;2023-01-30T08:36:47;98503.53;;;1.97;100.00
4398;BME280;2213;49.720;7.296;2023-01-30T08:39:18;98506.56;;;2.02;100.00
4398;BME280;2213;49.720;7.296;2023-01-30T08:41:47;98507.28;;;2.04;100.00
4398;BME280;2213;49.720;7.296;2023-01-30T08:44:16;98507.28;;;2.04;100.00
4398;BME280;2213;49.720;7.296;2023-01-30T08:46:45;98510.41;;;2.08;100.00
4398;BME280;2213;49.720;7.296;2023-01-30T08:49:15;98508.66;;;2.08;100.00
4398;BME280;2213;49.720;7.296;2023-01-30T08:51:45;98504.19;;;2.10;100.00
4398;BME280;2213;49.720;7.296;2023-01-30T08:54:14;98502.69;;;2.08;100.00
4398;BME280;2213;49.720;7.296;2023-01-30T08:56:46;98501.38;;;2.13;100.00
4398;BME280;2213;49.720;7.296;2023-01-30T08:59:16;98515.34;;;2.11;100.00
4398;BME280;2213;49.720;7.296;2023-01-30T09:01:46;98503.69;;;2.16;100.00
4398;BME280;2213;49.720;7.296;2023-01-30T09:04:15;98504.50;;;2.17;100.00
4398;BME280;2213;49.720;7.296;2023-01-30T09:06:46;98490.69;;;2.18;100.00
4398;BME280;2213;49.720;7.296;2023-01-30T09:09:15;98481.06;;;2.20;100.00
4398;BME280;2213;49.720;7.296;2023-01-30T09:11:46;98487.97;;;2.19;100.00
4398;BME280;2213;49.720;7.296;2023-01-30T09:14:17;98479.75;;;2.25;100.00
4398;BME280;2213;49.720;7.296;2023-01-30T09:16:46;98486.09;;;2.21;100.00
4398;BME280;2213;49.720;7.296;2023-01-30T09:19:24;98463.72;;;2.22;100.00
4398;BME280;2213;49.720;7.296;2023-01-30T09:21:54;98464.38;;;2.24;100.00
4398;BME280;2213;49.720;7.296;2023-01-30T09:24:24;98462.50;;;2.26;100.00
4398;BME280;2213;49.720;7.296;2023-01-30T09:26:56;98460.47;;;2.29;100.00
4398;BME280;2213;49.720;7.296;2023-01-30T09:29:26;98472.00;;;2.25;100.00
4398;BME280;2213;49.720;7.296;2023-01-30T09:31:56;98473.38;;;2.29;100.00
4398;BME280;2213;49.720;7.296;2023-01-30T09:34:27;98470.56;;;2.32;100.00
4398;BME280;2213;49.720;7.296;2023-01-30T09:36:56;98484.28;;;2.33;100.00
4398;BME280;2213;49.720;7.296;2023-01-30T09:39:28;98489.22;;;2.36;100.00
4398;BME280;2213;49.720;7.296;2023-01-30T09:42:49;98493.41;;;2.37;100.00
4398;BME280;2213;49.720;7.296;2023-01-30T09:46:05;98485.56;;;2.38;100.00
4398;BME280;2213;49.720;7.296;2023-01-30T09:48:53;98495.88;;;2.38;100.00
4398;BME280;2213;49.720;7.296;2023-01-30T09:51:42;98497.63;;;2.38;100.00
4398;BME280;2213;49.720;7.296;2023-01-30T09:54:20;98497.38;;;2.41;100.00
4398;BME280;2213;49.720;7.296;2023-01-30T09:56:57;98495.72;;;2.40;100.00
4398;BME280;2213;49.720;7.296;2023-01-30T09:59:42;98493.84;;;2.42;100.00
4398;BME280;2213;49.720;7.296;2023-01-30T10:02:36;98491.84;;;2.45;100.00
4398;BME280;2213;49.720;7.296;2023-01-30T10:05:08;98500.41;;;2.46;100.00
4398;BME280;2213;49.720;7.296;2023-01-30T10:08:20;98489.28;;;2.45;100.00
4398;BME280;2213;49.720;7.296;2023-01-30T10:11:02;98490.78;;;2.48;100.00
4398;BME280;2213;49.720;7.296;2023-01-30T10:17:10;98480.34;;;2.49;100.00
4398;BME280;2213;49.720;7.296;2023-01-30T10:20:02;98475.97;;;2.50;100.00
4398;BME280;2213;49.720;7.296;2023-01-30T10:22:47;98481.94;;;2.50;100.00
4398;BME280;2213;49.720;7.296;2023-01-30T10:25:29;98484.41;;;2.52;100.00
4398;BME280;2213;49.720;7.296;2023-01-30T10:28:06;98477.50;;;2.52;100.00
4398;BME280;2213;49.720;7.296;2023-01-30T10:30:43;98477.34;;;2.54;100.00
4398;BME280;2213;49.720;7.296;2023-01-30T10:33:23;98486.63;;;2.57;100.00
4398;BME280;2213;49.720;7.296;2023-01-30T10:36:42;98482.25;;;2.57;100.00
4398;BME280;2213;49.720;7.296;2023-01-30T10:39:25;98479.69;;;2.57;100.00
4398;BME280;2213;49.720;7.296;2023-01-30T10:42:05;98465.72;;;2.60;100.00
4398;BME280;2213;49.720;7.296;2023-01-30T10:44:39;98472.50;;;2.61;100.00
4398;BME280;2213;49.720;7.296;2023-01-30T10:47:44;98486.38;;;2.60;100.00
4398;BME280;2213;49.720;7.296;2023-01-30T10:50:18;98477.66;;;2.61;100.00
4398;BME280;2213;49.720;7.296;2023-01-30T10:52:56;98472.28;;;2.64;100.00
4398;BME280;2213;49.720;7.296;2023-01-30T10:55:35;98471.31;;;2.65;100.00
4398;BME280;2213;49.720;7.296;2023-01-30T10:58:18;98467.91;;;2.64;100.00
4398;BME280;2213;49.720;7.296;2023-01-30T11:01:00;98472.97;;;2.66;100.00
4398;BME280;2213;49.720;7.296;2023-01-30T11:03:38;98472.84;;;2.67;100.00
4398;BME280;2213;49.720;7.296;2023-01-30T11:06:14;98458.84;;;2.70;100.00
4398;BME280;2213;49.720;7.296;2023-01-30T11:08:47;98449.09;;;2.73;100.00
4398;BME280;2213;49.720;7.296;2023-01-30T11:11:47;98462.81;;;2.74;100.00
4398;BME280;2213;49.720;7.296;2023-01-30T11:14:17;98461.19;;;2.73;100.00
4398;BME280;2213;49.720;7.296;2023-01-30T11:16:50;98461.19;;;2.73;100.00
4398;BME280;2213;49.720;7.296;2023-01-30T11:19:30;98460.34;;;2.72;100.00
4398;BME280;2213;49.720;7.296;2023-01-30T11:22:04;98469.88;;;2.72;100.00
4398;BME280;2213;49.720;7.296;2023-01-30T11:24:41;98465.41;;;2.74;100.00
4398;BME280;2213;49.720;7.296;2023-01-30T11:27:18;98461.75;;;2.76;100.00
4398;BME280;2213;49.720;7.296;2023-01-30T11:30:11;98461.75;;;2.76;100.00
4398;BME280;2213;49.720;7.296;2023-01-30T11:32:42;98440.00;;;2.79;100.00
4398;BME280;2213;49.720;7.296;2023-01-30T11:35:28;98438.25;;;2.79;100.00
4398;BME280;2213;49.720;7.296;2023-01-30T11:38:15;98451.03;;;2.81;100.00
4398;BME280;2213;49.720;7.296;2023-01-30T11:41:01;98449.97;;;2.83;100.00
4398;BME280;2213;49.720;7.296;2023-01-30T11:43:33;98444.53;;;2.86;100.00
4398;BME280;2213;49.720;7.296;2023-01-30T11:46:05;98447.69;;;2.90;100.00
4398;BME280;2213;49.720;7.296;2023-01-30T11:48:47;98454.22;;;2.94;100.00
4398;BME280;2213;49.720;7.296;2023-01-30T11:51:44;98439.28;;;2.97;100.00
4398;BME280;2213;49.720;7.296;2023-01-30T11:54:20;98434.78;;;2.99;100.00
4398;BME280;2213;49.720;7.296;2023-01-30T11:56:55;98436.28;;;3.02;100.00
4398;BME280;2213;49.720;7.296;2023-01-30T11:59:30;98446.13;;;3.08;100.00
4398;BME280;2213;49.720;7.296;2023-01-30T12:02:10;98442.56;;;3.09;100.00
4398;BME280;2213;49.720;7.296;2023-01-30T12:04:45;98447.63;;;3.11;100.00
4398;BME280;2213;49.720;7.296;2023-01-30T12:07:20;98458.78;;;3.11;100.00
4398;BME280;2213;49.720;7.296;2023-01-30T12:09:51;98455.09;;;3.14;100.00
4398;BME280;2213;49.720;7.296;2023-01-30T12:12:36;98453.34;;;3.14;100.00
4398;BME280;2213;49.720;7.296;2023-01-30T12:15:21;98461.66;;;3.18;100.00
4398;BME280;2213;49.720;7.296;2023-01-30T12:18:02;98448.63;;;3.19;100.00
4398;BME280;2213;49.720;7.296;2023-01-30T12:20:47;98438.03;;;3.22;100.00
4398;BME280;2213;49.720;7.296;2023-01-30T12:23:35;98440.34;;;3.25;100.00
4398;BME280;2213;49.720;7.296;2023-01-30T12:26:13;98436.41;;;3.31;100.00
4398;BME280;2213;49.720;7.296;2023-01-30T12:28:51;98439.53;;;3.34;100.00
4398;BME280;2213;49.720;7.296;2023-01-30T12:31:29;98439.16;;;3.39;100.00
4398;BME280;2213;49.720;7.296;2023-01-30T12:34:03;98451.41;;;3.46;100.00
4398;BME280;2213;49.720;7.296;2023-01-30T12:36:44;98453.59;;;3.51;100.00
4398;BME280;2213;49.720;7.296;2023-01-30T12:39:27;98438.63;;;3.54;100.00
4398;BME280;2213;49.720;7.296;2023-01-30T12:42:35;98433.19;;;3.58;100.00
4398;BME280;2213;49.720;7.296;2023-01-30T12:45:21;98440.28;;;3.65;100.00
4398;BME280;2213;49.720;7.296;2023-01-30T12:48:29;98446.00;;;3.69;100.00
4398;BME280;2213;49.720;7.296;2023-01-30T12:51:36;98444.41;;;3.77;100.00
4398;BME280;2213;49.720;7.296;2023-01-30T12:54:25;98450.94;;;3.81;100.00
4398;BME280;2213;49.720;7.296;2023-01-30T12:57:14;98441.16;;;3.85;100.00
4398;BME280;2213;49.720;7.296;2023-01-30T13:00:04;98446.03;;;3.88;100.00
4398;BME280;2213;49.720;7.296;2023-01-30T13:03:00;98437.63;;;3.95;100.00
4398;BME280;2213;49.720;7.296;2023-01-30T13:05:41;98432.97;;;3.99;100.00
4398;BME280;2213;49.720;7.296;2023-01-30T13:08:32;98437.72;;;4.03;100.00
4398;BME280;2213;49.720;7.296;2023-01-30T13:11:31;98441.69;;;4.07;100.00
4398;BME280;2213;49.720;7.296;2023-01-30T13:14:15;98437.88;;;4.12;100.00
4398;BME280;2213;49.720;7.296;2023-01-30T13:17:12;98430.50;;;4.17;100.00
4398;BME280;2213;49.720;7.296;2023-01-30T13:19:54;98432.69;;;4.21;100.00
4398;BME280;2213;49.720;7.296;2023-01-30T13:22:36;98435.69;;;4.26;100.00
4398;BME280;2213;49.720;7.296;2023-01-30T13:25:22;98432.94;;;4.28;100.00
4398;BME280;2213;49.720;7.296;2023-01-30T13:28:00;98439.78;;;4.29;100.00
4398;BME280;2213;49.720;7.296;2023-01-30T13:30:35;98439.50;;;4.32;100.00
4398;BME280;2213;49.720;7.296;2023-01-30T13:33:11;98449.03;;;4.31;100.00
4398;BME280;2213;49.720;7.296;2023-01-30T13:35:48;98456.13;;;4.29;100.00
4398;BME280;2213;49.720;7.296;2023-01-30T13:38:23;98452.59;;;4.30;100.00
4398;BME280;2213;49.720;7.296;2023-01-30T13:40:57;98451.50;;;4.33;100.00
4398;BME280;2213;49.720;7.296;2023-01-30T13:43:33;98455.84;;;4.32;100.00
4398;BME280;2213;49.720;7.296;2023-01-30T13:46:10;98463.47;;;4.34;100.00
4398;BME280;2213;49.720;7.296;2023-01-30T13:49:08;98458.81;;;4.37;100.00
4398;BME280;2213;49.720;7.296;2023-01-30T13:51:47;98460.06;;;4.33;100.00
4398;BME280;2213;49.720;7.296;2023-01-30T13:54:42;98469.44;;;4.34;100.00
4398;BME280;2213;49.720;7.296;2023-01-30T13:57:28;98473.41;;;4.38;100.00
4398;BME280;2213;49.720;7.296;2023-01-30T14:00:31;98476.00;;;4.38;100.00
4398;BME280;2213;49.720;7.296;2023-01-30T14:03:27;98471.50;;;4.40;100.00
4398;BME280;2213;49.720;7.296;2023-01-30T14:06:09;98475.44;;;4.44;100.00
4398;BME280;2213;49.720;7.296;2023-01-30T14:08:52;98483.63;;;4.49;100.00
4398;BME280;2213;49.720;7.296;2023-01-30T14:11:41;98481.03;;;4.49;100.00
4398;BME280;2213;49.720;7.296;2023-01-30T14:14:32;98480.09;;;4.50;100.00
4398;BME280;2213;49.720;7.296;2023-01-30T14:17:15;98492.88;;;4.52;100.00